createdAt,value
2018-05-13T00:01:25.404Z,100732.77
2018-05-13T00:03:53.767Z,100729.84
2018-05-13T00:06:22.145Z,100729.05
2018-05-13T00:08:50.472Z,100729.66
2018-05-13T00:11:19.611Z,100733.06
2018-05-13T00:13:47.951Z,100727.14
2018-05-13T00:16:17.099Z,100731.13
2018-05-13T00:18:45.421Z,100734.39
2018-05-13T00:21:14.523Z,100738.86
2018-05-13T00:23:42.882Z,100731.98
2018-05-13T00:26:12.011Z,100735.44
2018-05-13T00:28:40.331Z,100735.17
2018-05-13T00:31:08.678Z,100734.77
2018-05-13T00:33:37.003Z,100730.56
2018-05-13T00:36:05.361Z,100735.23
2018-05-13T00:38:33.687Z,100732.62
2018-05-13T00:41:02.127Z,100726.95
2018-05-13T00:43:30.567Z,100727.84
2018-05-13T00:45:58.975Z,100722.30
2018-05-13T00:48:27.339Z,100720.72
2018-05-13T00:50:55.803Z,100719.83
2018-05-13T00:53:24.129Z,100719.77
2018-05-13T00:55:52.498Z,100716.00
2018-05-13T00:58:20.805Z,100716.48
2018-05-13T01:00:49.567Z,100722.66
2018-05-13T01:03:17.909Z,100720.57
2018-05-13T01:05:46.293Z,100720.84
2018-05-13T01:08:14.640Z,100720.00
2018-05-13T01:10:43.004Z,100714.36
2018-05-13T01:13:11.326Z,100720.05
2018-05-13T01:15:39.710Z,100715.64
2018-05-13T01:18:08.170Z,100707.67
2018-05-13T01:20:37.278Z,100708.69
2018-05-13T01:23:05.624Z,100710.07
2018-05-13T01:25:34.713Z,100712.28
2018-05-13T01:28:03.070Z,100706.97
2018-05-13T01:30:33.116Z,100709.25
2018-05-13T01:33:01.862Z,100703.70
2018-05-13T01:35:30.229Z,100705.57
2018-05-13T01:37:58.565Z,100708.70
2018-05-13T01:40:26.892Z,100704.43
2018-05-13T01:42:55.686Z,100699.61
2018-05-13T01:45:24.028Z,100696.89
2018-05-13T01:47:52.405Z,100694.23
2018-05-13T01:50:20.741Z,100698.17
2018-05-13T01:52:49.115Z,100698.61
2018-05-13T01:55:17.509Z,100694.09
2018-05-13T01:57:46.917Z,100692.09
2018-05-13T02:00:16.419Z,100692.05
2018-05-13T02:02:45.643Z,100687.36
2018-05-13T02:05:14.042Z,100690.78
2018-05-13T02:07:42.458Z,100686.45
2018-05-13T02:10:11.697Z,100687.61
2018-05-13T02:12:40.028Z,100690.78
2018-05-13T02:15:09.202Z,100694.02
2018-05-13T02:17:37.705Z,100693.19
2018-05-13T02:20:06.813Z,100694.64
2018-05-13T02:22:35.382Z,100689.72
2018-05-13T02:25:05.370Z,100689.38
2018-05-13T02:27:33.746Z,100676.50
2018-05-13T02:30:02.081Z,100686.72
2018-05-13T02:32:30.430Z,100691.22
2018-05-13T02:34:59.613Z,100690.56
2018-05-13T02:37:28.745Z,100687.84
2018-05-13T02:39:57.138Z,100687.74
2018-05-13T02:42:26.237Z,100690.05
2018-05-13T02:44:54.581Z,100688.46
2018-05-13T02:47:24.462Z,100685.31
2018-05-13T02:49:52.834Z,100678.22
2018-05-13T02:52:21.214Z,100680.78
2018-05-13T02:54:50.342Z,100680.11
2018-05-13T02:57:19.474Z,100677.78
2018-05-13T02:59:47.858Z,100680.75
2018-05-13T03:02:16.370Z,100674.78
2018-05-13T03:04:45.504Z,100678.25
2018-05-13T03:07:14.310Z,100676.91
2018-05-13T03:09:42.923Z,100674.41
2018-05-13T03:12:11.354Z,100675.17
2018-05-13T03:14:40.534Z,100668.16
2018-05-13T03:17:09.053Z,100670.35
2018-05-13T03:19:37.458Z,100671.02
2018-05-13T03:22:05.858Z,100674.24
2018-05-13T03:24:34.227Z,100672.68
2018-05-13T03:27:02.602Z,100673.70
2018-05-13T03:29:30.974Z,100673.34
2018-05-13T03:31:59.322Z,100680.90
2018-05-13T03:34:27.709Z,100678.23
2018-05-13T03:36:56.646Z,100681.70
2018-05-13T03:39:25.155Z,100680.47
2018-05-13T03:41:53.503Z,100681.11
2018-05-13T03:44:21.904Z,100676.83
2018-05-13T03:46:51.074Z,100679.36
2018-05-13T03:49:19.425Z,100679.91
2018-05-13T03:51:48.762Z,100675.06
2018-05-13T03:54:17.114Z,100679.80
2018-05-13T03:56:45.490Z,100678.47
2018-05-13T03:59:13.865Z,100683.28
2018-05-13T04:01:42.290Z,100681.83
2018-05-13T04:04:11.402Z,100683.91
2018-05-13T04:06:39.727Z,100679.75
2018-05-13T04:09:27.605Z,100679.13
2018-05-13T04:12:13.839Z,100680.75
2018-05-13T04:14:59.818Z,100679.98
2018-05-13T04:17:28.116Z,100678.35
2018-05-13T04:19:56.540Z,100677.16
2018-05-13T04:22:25.650Z,100676.65
2018-05-13T04:24:54.002Z,100676.97
2018-05-13T04:27:23.113Z,100677.06
2018-05-13T04:29:52.246Z,100681.30
2018-05-13T04:32:20.664Z,100677.58
2018-05-13T04:34:49.001Z,100679.19
2018-05-13T04:37:17.396Z,100669.02
2018-05-13T04:39:45.753Z,100683.12
2018-05-13T04:42:14.880Z,100684.41
2018-05-13T04:44:44.017Z,100689.50
2018-05-13T04:47:12.773Z,100685.88
2018-05-13T04:49:41.185Z,100681.63
2018-05-13T04:52:10.264Z,100681.83
2018-05-13T04:54:39.401Z,100685.55
2018-05-13T04:57:09.301Z,100678.56
2018-05-13T04:59:38.207Z,100680.91
2018-05-13T05:02:06.697Z,100674.36
2018-05-13T05:04:35.773Z,100680.42
2018-05-13T05:07:04.216Z,100673.06
2018-05-13T05:09:33.326Z,100677.33
2018-05-13T05:12:02.469Z,100653.17
2018-05-13T05:14:30.793Z,100679.58
2018-05-13T05:16:59.563Z,100678.51
2018-05-13T05:19:27.891Z,100680.03
2018-05-13T05:21:56.283Z,100683.64
2018-05-13T05:24:24.610Z,100688.02
2018-05-13T05:26:53.814Z,100687.27
2018-05-13T05:29:22.155Z,100684.42
2018-05-13T05:31:50.543Z,100677.27
2018-05-13T05:34:18.904Z,100676.17
2018-05-13T05:36:47.284Z,100671.19
2018-05-13T05:39:15.632Z,100669.02
2018-05-13T05:41:43.960Z,100673.03
2018-05-13T05:44:12.349Z,100672.03
2018-05-13T05:46:40.663Z,100679.01
2018-05-13T05:49:08.984Z,100677.20
2018-05-13T05:51:37.350Z,100683.59
2018-05-13T05:54:05.782Z,100681.55
2018-05-13T05:56:34.143Z,100681.54
2018-05-13T05:59:03.278Z,100682.46
2018-05-13T06:01:31.696Z,100674.52
2018-05-13T06:04:00.024Z,100675.89
2018-05-13T06:06:28.408Z,100680.80
2018-05-13T06:08:57.530Z,100674.87
2018-05-13T06:11:25.848Z,100675.32
2018-05-13T06:13:54.977Z,100681.56
2018-05-13T06:16:23.304Z,100673.39
2018-05-13T06:18:51.649Z,100677.55
2018-05-13T06:21:20.009Z,100677.52
2018-05-13T06:23:48.325Z,100687.11
2018-05-13T06:26:16.685Z,100682.34
2018-05-13T06:28:45.053Z,100687.23
2018-05-13T06:31:13.397Z,100682.83
2018-05-13T06:33:41.749Z,100684.86
2018-05-13T06:36:10.619Z,100680.64
2018-05-13T06:38:38.975Z,100684.50
2018-05-13T06:41:07.310Z,100684.67
2018-05-13T06:43:36.448Z,100679.34
2018-05-13T06:46:04.778Z,100682.47
2018-05-13T06:48:33.888Z,100679.83
2018-05-13T06:51:02.327Z,100683.11
2018-05-13T06:53:30.624Z,100679.43
2018-05-13T06:55:59.018Z,100670.33
2018-05-13T06:58:28.153Z,100664.55
2018-05-13T07:00:56.468Z,100666.82
2018-05-13T07:03:24.839Z,100671.32
2018-05-13T07:05:53.207Z,100661.84
2018-05-13T07:08:21.948Z,100665.08
2018-05-13T07:10:50.446Z,100668.82
2018-05-13T07:13:18.775Z,100668.86
2018-05-13T07:15:47.148Z,100667.91
2018-05-13T07:18:15.484Z,100668.72
2018-05-13T07:20:43.829Z,100661.88
2018-05-13T07:23:12.936Z,100655.93
2018-05-13T07:25:41.340Z,100657.80
2018-05-13T07:28:09.681Z,100652.55
2018-05-13T07:30:38.769Z,100650.13
2018-05-13T07:33:07.930Z,100654.95
2018-05-13T07:35:36.309Z,100649.94
2018-05-13T07:38:05.784Z,100650.91
2018-05-13T07:40:34.150Z,100647.74
2018-05-13T07:43:02.531Z,100647.78
2018-05-13T07:45:30.966Z,100644.30
2018-05-13T07:47:59.330Z,100643.50
2018-05-13T07:50:27.933Z,100639.31
2018-05-13T07:52:57.099Z,100644.46
2018-05-13T07:55:25.807Z,100642.17
2018-05-13T07:57:55.932Z,100643.00
2018-05-13T08:00:24.326Z,100634.20
2018-05-13T08:02:54.078Z,100637.80
2018-05-13T08:05:22.495Z,100637.48
2018-05-13T08:07:50.967Z,100633.66
2018-05-13T08:10:19.376Z,100635.76
2018-05-13T08:12:48.796Z,100629.81
2018-05-13T08:15:17.225Z,100639.94
2018-05-13T08:17:45.940Z,100631.71
2018-05-13T08:20:15.903Z,100628.48
2018-05-13T08:22:50.061Z,100634.28
2018-05-13T08:25:18.489Z,100628.78
2018-05-13T08:27:46.832Z,100626.14
2018-05-13T08:30:15.964Z,100624.72
2018-05-13T08:32:45.052Z,100616.48
2018-05-13T08:35:13.391Z,100618.50
2018-05-13T08:37:42.499Z,100621.72
2018-05-13T08:40:10.867Z,100618.73
2018-05-13T08:42:40.341Z,100610.63
2018-05-13T08:45:08.783Z,100605.95
2018-05-13T08:47:37.105Z,100610.97
2018-05-13T08:50:05.553Z,100607.51
2018-05-13T08:52:34.135Z,100607.94
2018-05-13T08:55:02.507Z,100600.56
2018-05-13T08:57:31.224Z,100597.37
2018-05-13T08:59:59.570Z,100605.12
2018-05-13T09:02:27.936Z,100603.65
2018-05-13T09:04:56.669Z,100605.41
2018-05-13T09:07:25.411Z,100606.21
2018-05-13T09:09:53.723Z,100604.84
2018-05-13T09:12:22.138Z,100601.68
2018-05-13T09:14:50.855Z,100601.38
2018-05-13T09:17:19.601Z,100593.88
2018-05-13T09:19:48.108Z,100596.13
2018-05-13T09:22:16.618Z,100598.38
2018-05-13T09:24:45.127Z,100596.77
2018-05-13T09:27:13.557Z,100593.71
2018-05-13T09:29:41.917Z,100597.38
2018-05-13T09:32:11.012Z,100591.39
2018-05-13T09:34:40.141Z,100588.53
2018-05-13T09:37:08.476Z,100587.53
2018-05-13T09:39:37.613Z,100591.78
2018-05-13T09:42:06.046Z,100580.33
2018-05-13T09:44:35.876Z,100582.27
2018-05-13T09:47:05.041Z,100588.16
2018-05-13T09:49:33.347Z,100579.30
2018-05-13T09:52:02.475Z,100578.08
2018-05-13T09:54:32.424Z,100577.11
2018-05-13T09:57:00.770Z,100583.21
2018-05-13T09:59:29.155Z,100572.92
2018-05-13T10:01:58.295Z,100568.70
2018-05-13T10:04:27.399Z,100567.47
2018-05-13T10:06:56.551Z,100575.65
2018-05-13T10:09:24.878Z,100575.92
2018-05-13T10:11:54.029Z,100567.05
2018-05-13T10:14:22.882Z,100566.33
2018-05-13T10:16:51.216Z,100567.56
2018-05-13T10:19:19.798Z,100569.32
2018-05-13T10:21:48.994Z,100572.83
2018-05-13T10:24:17.343Z,100569.23
2018-05-13T10:26:46.077Z,100573.52
2018-05-13T10:29:14.579Z,100575.86
2018-05-13T10:31:42.916Z,100569.87
2018-05-13T10:34:11.275Z,100570.59
2018-05-13T10:36:39.595Z,100574.70
2018-05-13T10:39:07.930Z,100571.62
2018-05-13T10:41:36.276Z,100558.80
2018-05-13T10:44:05.530Z,100558.05
2018-05-13T10:46:33.906Z,100558.97
2018-05-13T10:49:03.298Z,100559.40
2018-05-13T10:51:31.662Z,100561.58
2018-05-13T10:54:00.070Z,100559.27
2018-05-13T10:56:28.926Z,100557.05
2018-05-13T10:58:57.327Z,100546.47
2018-05-13T11:01:25.630Z,100539.77
2018-05-13T11:03:54.017Z,100547.17
2018-05-13T11:06:23.670Z,100532.08
2018-05-13T11:08:52.029Z,100539.77
2018-05-13T11:11:20.512Z,100540.84
2018-05-13T11:13:48.882Z,100535.45
2018-05-13T11:16:17.251Z,100535.17
2018-05-13T11:18:45.646Z,100502.03
2018-05-13T11:21:13.992Z,100524.52
2018-05-13T11:23:43.090Z,100525.86
2018-05-13T11:26:11.460Z,100533.59
2018-05-13T11:28:40.549Z,100524.52
2018-05-13T11:31:10.437Z,100523.92
2018-05-13T11:33:39.347Z,100521.59
2018-05-13T11:36:08.046Z,100521.74
2018-05-13T11:38:37.151Z,100518.23
2018-05-13T11:41:05.501Z,100515.80
2018-05-13T11:43:33.844Z,100511.06
2018-05-13T11:46:02.166Z,100511.49
2018-05-13T11:48:31.334Z,100497.42
2018-05-13T11:50:59.749Z,100499.58
2018-05-13T11:53:28.894Z,100509.04
2018-05-13T11:55:57.249Z,100496.14
2018-05-13T11:58:25.620Z,100493.12
2018-05-13T12:00:54.097Z,100498.79
2018-05-13T12:03:22.461Z,100494.41
2018-05-13T12:05:50.998Z,100491.39
2018-05-13T12:08:19.369Z,100493.73
2018-05-13T12:10:47.721Z,100483.89
2018-05-13T12:13:16.096Z,100489.23
2018-05-13T12:15:44.444Z,100480.76
2018-05-13T12:18:14.282Z,100468.41
2018-05-13T12:20:42.700Z,100474.72
2018-05-13T12:23:11.156Z,100473.60
2018-05-13T12:25:39.516Z,100481.17
2018-05-13T12:28:08.879Z,100473.98
2018-05-13T12:30:37.205Z,100472.89
2018-05-13T12:33:06.367Z,100467.97
2018-05-13T12:35:36.506Z,100471.60
2018-05-13T12:38:09.813Z,100474.48
2018-05-13T12:40:38.392Z,100468.95
2018-05-13T12:43:07.458Z,100461.17
2018-05-13T12:45:36.556Z,100460.76
2018-05-13T12:48:05.693Z,100460.56
2018-05-13T12:50:34.032Z,100455.70
2018-05-13T12:53:03.170Z,100454.66
2018-05-13T12:55:32.260Z,100454.48
2018-05-13T12:58:00.626Z,100453.48
2018-05-13T13:00:28.985Z,100453.80
2018-05-13T13:02:59.065Z,100446.17
2018-05-13T13:05:27.377Z,100434.20
2018-05-13T13:07:56.899Z,100442.45
2018-05-13T13:10:25.223Z,100443.84
2018-05-13T13:12:54.469Z,100449.12
2018-05-13T13:15:22.745Z,100437.90
2018-05-13T13:17:51.071Z,100437.07
2018-05-13T13:20:19.444Z,100437.91
2018-05-13T13:22:47.773Z,100440.09
2018-05-13T13:25:16.103Z,100417.16
2018-05-13T13:27:44.477Z,100431.38
2018-05-13T13:30:12.819Z,100420.67
2018-05-13T13:32:41.203Z,100418.73
2018-05-13T13:35:09.566Z,100418.83
2018-05-13T13:37:38.876Z,100423.81
2018-05-13T13:40:07.222Z,100420.39
2018-05-13T13:42:36.372Z,100411.96
2018-05-13T13:45:04.753Z,100417.53
2018-05-13T13:47:33.084Z,100414.86
2018-05-13T13:50:02.203Z,100409.63
2018-05-13T13:52:31.482Z,100414.15
2018-05-13T13:55:00.625Z,100407.93
2018-05-13T13:57:28.976Z,100396.60
2018-05-13T13:59:57.944Z,100389.19
2018-05-13T14:02:26.401Z,100402.45
2018-05-13T14:04:54.764Z,100401.41
2018-05-13T14:07:23.107Z,100386.27
2018-05-13T14:09:51.473Z,100382.56
2018-05-13T14:12:19.805Z,100386.22
2018-05-13T14:14:48.129Z,100385.91
2018-05-13T14:17:16.509Z,100387.34
2018-05-13T14:19:45.729Z,100380.95
2018-05-13T14:22:14.155Z,100378.22
2018-05-13T14:24:43.260Z,100379.02
2018-05-13T14:27:13.117Z,100386.22
2018-05-13T14:29:41.441Z,100376.37
2018-05-13T14:32:10.642Z,100366.73
2018-05-13T14:34:38.932Z,100359.23
2018-05-13T14:37:07.312Z,100373.80
2018-05-13T14:39:36.053Z,100369.02
2018-05-13T14:42:04.406Z,100371.95
2018-05-13T14:44:33.900Z,100361.32
2018-05-13T14:47:02.943Z,100361.05
2018-05-13T14:49:31.282Z,100368.89
2018-05-13T14:51:59.625Z,100360.31
2018-05-13T14:54:28.766Z,100360.50
2018-05-13T14:56:57.174Z,100363.70
2018-05-13T14:59:25.575Z,100360.87
2018-05-13T15:01:54.725Z,100368.67
2018-05-13T15:04:23.057Z,100376.36
2018-05-13T15:06:51.392Z,100365.28
2018-05-13T15:09:19.771Z,100363.30
2018-05-13T15:11:48.150Z,100360.06
2018-05-13T15:14:16.916Z,100356.70
2018-05-13T15:16:45.252Z,100357.78
2018-05-13T15:19:13.654Z,100353.77
2018-05-13T15:21:42.016Z,100348.36
2018-05-13T15:24:10.349Z,100358.33
2018-05-13T15:26:38.695Z,100344.06
2018-05-13T15:29:07.134Z,100342.34
2018-05-13T15:31:35.463Z,100345.31
2018-05-13T15:34:03.843Z,100342.42
2018-05-13T15:36:32.213Z,100344.68
2018-05-13T15:39:00.580Z,100336.38
2018-05-13T15:41:28.926Z,100337.98
2018-05-13T15:43:58.048Z,100332.91
2018-05-13T15:46:26.368Z,100327.39
2018-05-13T15:48:54.724Z,100322.69
2018-05-13T15:51:23.088Z,100326.05
2018-05-13T15:53:51.511Z,100321.82
2018-05-13T15:56:19.884Z,100330.61
2018-05-13T15:58:48.218Z,100320.62
2018-05-13T16:01:16.545Z,100324.06
2018-05-13T16:03:44.914Z,100322.48
2018-05-13T16:06:13.308Z,100321.62
2018-05-13T16:08:42.433Z,100319.76
2018-05-13T16:11:10.735Z,100315.70
2018-05-13T16:13:39.864Z,100319.20
2018-05-13T16:16:08.608Z,100323.58
2018-05-13T16:18:36.960Z,100320.40
2018-05-13T16:21:07.424Z,100322.08
2018-05-13T16:23:35.748Z,100318.90
2018-05-13T16:26:04.900Z,100311.17
2018-05-13T16:28:33.256Z,100306.83
2018-05-13T16:31:01.752Z,100309.34
2018-05-13T16:33:30.119Z,100311.42
2018-05-13T16:35:58.500Z,100315.56
2018-05-13T16:38:26.977Z,100312.58
2018-05-13T16:40:55.361Z,100311.10
2018-05-13T16:43:23.750Z,100313.70
2018-05-13T16:45:55.411Z,100321.09
2018-05-13T16:48:26.613Z,100309.14
2018-05-13T16:50:55.029Z,100319.64
2018-05-13T16:53:23.419Z,100316.08
2018-05-13T16:55:51.777Z,100311.70
2018-05-13T16:58:20.177Z,100312.77
2018-05-13T17:00:48.610Z,100306.92
2018-05-13T17:03:17.774Z,100315.73
2018-05-13T17:05:46.111Z,100319.10
2018-05-13T17:08:14.469Z,100316.63
2018-05-13T17:10:44.119Z,100318.33
2018-05-13T17:13:12.727Z,100316.86
2018-05-13T17:15:42.269Z,100314.75
2018-05-13T17:18:11.617Z,100318.64
2018-05-13T17:20:40.343Z,100316.38
2018-05-13T17:23:09.541Z,100319.50
2018-05-13T17:25:37.952Z,100317.89
2018-05-13T17:31:07.295Z,100316.97
2018-05-13T17:33:37.968Z,100314.53
2018-05-13T17:36:06.614Z,100321.02
2018-05-13T17:38:36.111Z,100322.20
2018-05-13T17:41:04.538Z,100322.42
2018-05-13T17:43:32.928Z,100310.00
2018-05-13T17:46:02.699Z,100322.77
2018-05-13T17:48:31.077Z,100317.09
2018-05-13T17:51:01.104Z,100316.61
2018-05-13T17:53:29.547Z,100320.62
2018-05-13T17:55:58.691Z,100322.22
2018-05-13T17:58:27.803Z,100315.52
2018-05-13T18:00:56.411Z,100314.95
2018-05-13T18:03:24.753Z,100318.37
2018-05-13T18:05:53.957Z,100315.16
2018-05-13T18:08:22.301Z,100317.98
2018-05-13T18:10:50.759Z,100313.56
2018-05-13T18:13:20.125Z,100320.31
2018-05-13T18:15:48.551Z,100318.76
2018-05-13T18:18:16.971Z,100324.28
2018-05-13T18:20:45.289Z,100331.09
2018-05-13T18:23:13.639Z,100330.70
2018-05-13T18:25:42.263Z,100332.65
2018-05-13T18:28:10.632Z,100337.73
2018-05-13T18:30:39.013Z,100336.79
2018-05-13T18:33:08.393Z,100343.30
2018-05-13T18:35:36.752Z,100345.76
2018-05-13T18:38:05.121Z,100342.74
2018-05-13T18:40:33.496Z,100350.80
2018-05-13T18:43:03.506Z,100350.91
2018-05-13T18:45:33.008Z,100357.91
2018-05-13T18:48:02.114Z,100356.94
2018-05-13T18:50:31.251Z,100359.41
2018-05-13T18:52:59.623Z,100356.58
2018-05-13T18:55:27.961Z,100355.69
2018-05-13T18:57:57.080Z,100353.00
2018-05-13T19:00:32.767Z,100350.23
2018-05-13T19:03:03.065Z,100360.84
2018-05-13T19:05:31.453Z,100365.21
2018-05-13T19:07:59.838Z,100373.10
2018-05-13T19:10:29.015Z,100373.09
2018-05-13T19:12:57.403Z,100374.49
2018-05-13T19:15:25.828Z,100379.38
2018-05-13T19:17:54.176Z,100383.89
2018-05-13T19:20:22.639Z,100388.88
2018-05-13T19:22:51.010Z,100396.00
2018-05-13T19:25:19.417Z,100391.33
2018-05-13T19:27:47.782Z,100400.68
2018-05-13T19:30:18.671Z,100398.74
2018-05-13T19:32:47.794Z,100406.37
2018-05-13T19:35:17.019Z,100409.13
2018-05-13T19:37:45.766Z,100409.42
2018-05-13T19:40:14.186Z,100409.13
2018-05-13T19:42:42.612Z,100414.44
2018-05-13T19:45:11.815Z,100413.00
2018-05-13T19:47:40.187Z,100411.44
2018-05-13T19:50:09.346Z,100417.58
2018-05-13T19:52:37.738Z,100411.41
2018-05-13T19:55:06.234Z,100421.32
2018-05-13T19:57:35.392Z,100426.55
2018-05-13T20:00:03.766Z,100422.16
2018-05-13T20:02:32.114Z,100417.16
2018-05-13T20:05:00.646Z,100421.68
2018-05-13T20:07:29.009Z,100420.70
2018-05-13T20:09:57.385Z,100426.87
2018-05-13T20:12:25.762Z,100423.30
2018-05-13T20:14:54.153Z,100434.66
2018-05-13T20:17:22.557Z,100425.83
2018-05-13T20:19:51.665Z,100431.75
2018-05-13T20:22:20.826Z,100419.63
2018-05-13T20:24:50.304Z,100435.87
2018-05-13T20:27:18.752Z,100432.92
2018-05-13T20:29:47.098Z,100439.23
2018-05-13T20:32:15.478Z,100435.80
2018-05-13T20:34:43.880Z,100434.13
2018-05-13T20:37:13.758Z,100430.02
2018-05-13T20:39:42.148Z,100432.91
2018-05-13T20:42:10.530Z,100430.37
2018-05-13T20:44:38.910Z,100439.11
2018-05-13T20:47:07.220Z,100434.98
2018-05-13T20:49:35.578Z,100441.04
2018-05-13T20:52:03.991Z,100439.73
2018-05-13T20:54:32.314Z,100441.37
2018-05-13T20:57:00.668Z,100441.13
2018-05-13T20:59:29.954Z,100442.28
2018-05-13T21:01:58.326Z,100449.73
2018-05-13T21:04:26.713Z,100446.27
2018-05-13T21:06:55.046Z,100448.16
2018-05-13T21:09:24.168Z,100445.27
2018-05-13T21:11:52.478Z,100451.93
2018-05-13T21:14:20.831Z,100448.11
2018-05-13T21:16:49.258Z,100454.81
2018-05-13T21:19:17.690Z,100455.84
2018-05-13T21:21:46.074Z,100455.24
2018-05-13T21:24:15.579Z,100456.50
2018-05-13T21:26:43.914Z,100455.79
2018-05-13T21:29:13.044Z,100454.95
2018-05-13T21:31:41.361Z,100452.71
2018-05-13T21:34:09.721Z,100453.86
2018-05-13T21:36:38.053Z,100459.41
2018-05-13T21:39:06.423Z,100458.41
2018-05-13T21:41:35.921Z,100452.01
2018-05-13T21:44:05.022Z,100455.74
2018-05-13T21:46:34.154Z,100456.39
2018-05-13T21:49:02.497Z,100456.67
2018-05-13T21:51:31.585Z,100452.82
2018-05-13T21:53:59.965Z,100449.18
2018-05-13T21:56:29.062Z,100447.13
2018-05-13T21:58:57.412Z,100448.69
2018-05-13T22:01:25.750Z,100445.02
2018-05-13T22:03:54.094Z,100442.52
2018-05-13T22:06:23.206Z,100449.22
2018-05-13T22:08:51.584Z,100447.34
2018-05-13T22:11:19.951Z,100453.27
2018-05-13T22:13:49.075Z,100445.24
2018-05-13T22:16:17.410Z,100447.52
2018-05-13T22:18:46.536Z,100450.27
2018-05-13T22:21:14.897Z,100449.00
2018-05-13T22:23:43.700Z,100451.36
2018-05-13T22:26:12.780Z,100446.66
2018-05-13T22:28:41.917Z,100443.52
2018-05-13T22:31:10.284Z,100444.35
2018-05-13T22:33:38.649Z,100450.84
2018-05-13T22:36:07.021Z,100447.11
2018-05-13T22:38:35.376Z,100451.19
2018-05-13T22:41:03.739Z,100451.48
2018-05-13T22:43:32.330Z,100453.89
2018-05-13T22:46:00.656Z,100458.40
2018-05-13T22:48:29.415Z,100457.62
2018-05-13T22:50:58.532Z,100460.16
2018-05-13T22:53:26.858Z,100465.83
2018-05-13T22:55:55.221Z,100458.47
2018-05-13T22:58:23.545Z,100456.80
2018-05-13T23:00:51.891Z,100454.53
2018-05-13T23:03:20.248Z,100453.77
2018-05-13T23:05:48.578Z,100457.05
2018-05-13T23:08:16.937Z,100454.64
2018-05-13T23:10:46.030Z,100457.41
2018-05-13T23:13:14.344Z,100458.05
2018-05-13T23:15:42.741Z,100455.10
2018-05-13T23:18:11.072Z,100455.67
2018-05-13T23:20:40.219Z,100458.98
2018-05-13T23:23:09.356Z,100458.31
2018-05-13T23:25:38.486Z,100459.31
2018-05-13T23:28:06.820Z,100464.62
2018-05-13T23:30:35.252Z,100463.17
2018-05-13T23:33:03.616Z,100459.63
2018-05-13T23:35:32.332Z,100453.20
2018-05-13T23:38:01.058Z,100461.69
2018-05-13T23:40:30.210Z,100459.60
2018-05-13T23:42:58.551Z,100459.31
2018-05-13T23:45:26.868Z,100455.94
2018-05-13T23:47:55.188Z,100462.72
2018-05-13T23:50:24.311Z,100457.13
2018-05-13T23:52:52.635Z,100462.56
2018-05-13T23:55:21.003Z,100463.25
2018-05-13T23:57:49.376Z,100461.84
